createdAt,value
2023-12-13T00:00:08.769Z,11.04
2023-12-13T00:02:35.129Z,11.14
2023-12-13T00:05:01.731Z,11.22
2023-12-13T00:07:28.309Z,10.89
2023-12-13T00:09:54.680Z,10.66
2023-12-13T00:12:21.062Z,10.44
2023-12-13T00:14:47.410Z,10.31
2023-12-13T00:17:15.556Z,10.45
2023-12-13T00:19:42.158Z,10.37
2023-12-13T00:22:08.642Z,10.49
2023-12-13T00:24:35.223Z,10.38
2023-12-13T00:27:01.660Z,10.71
2023-12-13T00:29:28.054Z,10.56
2023-12-13T00:31:54.549Z,10.43
2023-12-13T00:34:20.949Z,10.25
2023-12-13T00:36:47.351Z,10.61
2023-12-13T00:39:13.711Z,10.72
2023-12-13T00:41:40.090Z,10.79
2023-12-13T00:44:06.531Z,10.70
2023-12-13T00:46:32.919Z,10.96
2023-12-13T00:48:59.571Z,10.97
2023-12-13T00:51:26.426Z,10.79
2023-12-13T00:53:52.855Z,10.97
2023-12-13T00:56:19.358Z,10.94
2023-12-13T00:58:49.017Z,10.99
2023-12-13T01:01:17.242Z,10.93
2023-12-13T01:03:43.832Z,10.60
2023-12-13T01:06:10.820Z,10.66
2023-12-13T01:08:38.857Z,10.70
2023-12-13T01:11:12.998Z,10.98
2023-12-13T01:13:39.942Z,10.74
2023-12-13T01:16:06.629Z,10.71
2023-12-13T01:18:33.129Z,10.88
2023-12-13T01:20:59.606Z,11.20
2023-12-13T01:23:26.045Z,11.12
2023-12-13T01:25:52.467Z,11.28
2023-12-13T01:28:18.973Z,11.12
2023-12-13T01:30:45.483Z,10.92
2023-12-13T01:33:11.932Z,10.87
2023-12-13T01:35:38.400Z,10.55
2023-12-13T01:38:04.801Z,10.18
2023-12-13T01:40:31.263Z,10.72
2023-12-13T01:42:57.645Z,10.43
2023-12-13T01:45:24.009Z,10.91
2023-12-13T01:47:50.476Z,10.64
2023-12-13T01:50:17.343Z,10.72
2023-12-13T01:52:44.030Z,10.51
2023-12-13T01:55:11.982Z,10.48
2023-12-13T01:57:39.957Z,10.48
2023-12-13T02:00:07.401Z,10.50
2023-12-13T02:02:33.865Z,10.98
2023-12-13T02:05:02.184Z,11.01
2023-12-13T02:07:28.841Z,10.87
2023-12-13T02:09:55.456Z,10.90
2023-12-13T02:12:22.091Z,10.66
2023-12-13T02:14:48.430Z,10.83
2023-12-13T02:17:14.871Z,10.80
2023-12-13T02:19:41.314Z,10.79
2023-12-13T02:22:09.024Z,10.65
2023-12-13T02:24:38.284Z,10.86
2023-12-13T02:27:05.060Z,10.88
2023-12-13T02:29:31.747Z,10.75
2023-12-13T02:31:58.235Z,10.53
2023-12-13T02:34:24.775Z,10.53
2023-12-13T02:36:51.169Z,10.96
2023-12-13T02:39:17.528Z,10.43
2023-12-13T02:41:43.956Z,10.81
2023-12-13T02:44:10.355Z,10.71
2023-12-13T02:46:36.964Z,10.68
2023-12-13T02:49:03.528Z,10.54
2023-12-13T02:51:29.941Z,10.75
2023-12-13T02:53:56.378Z,10.93
2023-12-13T02:56:22.799Z,10.56
2023-12-13T02:58:49.276Z,10.94
2023-12-13T03:01:15.741Z,10.70
2023-12-13T03:03:42.236Z,10.67
2023-12-13T03:06:09.210Z,10.97
2023-12-13T03:08:37.358Z,10.54
2023-12-13T03:11:03.884Z,10.56
2023-12-13T03:13:30.341Z,10.74
2023-12-13T03:15:56.767Z,10.55
2023-12-13T03:18:23.766Z,10.69
2023-12-13T03:20:50.234Z,10.73
2023-12-13T03:23:16.603Z,10.49
2023-12-13T03:25:43.040Z,10.62
2023-12-13T03:28:09.876Z,10.65
2023-12-13T03:30:36.358Z,10.27
2023-12-13T03:33:03.031Z,10.41
2023-12-13T03:35:29.453Z,10.49
2023-12-13T03:37:55.915Z,10.52
2023-12-13T03:40:22.371Z,10.47
2023-12-13T03:42:48.791Z,10.39
2023-12-13T03:45:15.282Z,10.42
2023-12-13T03:47:42.196Z,10.56
2023-12-13T03:50:09.875Z,10.63
2023-12-13T03:52:36.344Z,10.52
2023-12-13T03:55:02.873Z,10.37
2023-12-13T03:57:29.325Z,10.71
2023-12-13T03:59:55.755Z,10.58
2023-12-13T04:02:22.139Z,10.43
2023-12-13T04:04:48.607Z,10.59
2023-12-13T04:07:15.063Z,10.67
2023-12-13T04:09:41.476Z,10.95
2023-12-13T04:12:08.006Z,10.75
2023-12-13T04:14:34.567Z,10.72
2023-12-13T04:17:00.963Z,10.30
2023-12-13T04:19:27.404Z,10.29
2023-12-13T04:21:53.795Z,10.18
2023-12-13T04:24:20.194Z,10.26
2023-12-13T04:26:46.794Z,10.26
2023-12-13T04:29:13.291Z,10.33
2023-12-13T04:31:40.520Z,10.14
2023-12-13T04:34:06.953Z,10.16
2023-12-13T04:36:33.409Z,10.06
2023-12-13T04:38:59.856Z,10.60
2023-12-13T04:41:26.400Z,10.32
2023-12-13T04:43:52.842Z,10.45
2023-12-13T04:46:19.392Z,10.23
2023-12-13T04:48:45.811Z,10.45
2023-12-13T04:51:12.234Z,10.38
2023-12-13T04:53:38.611Z,10.57
2023-12-13T04:56:05.818Z,10.31
2023-12-13T04:58:32.337Z,10.79
2023-12-13T05:00:59.138Z,10.93
2023-12-13T05:03:27.617Z,10.84
2023-12-13T05:05:54.171Z,10.67
2023-12-13T05:08:20.629Z,10.66
2023-12-13T05:10:47.147Z,10.83
2023-12-13T05:13:13.701Z,10.66
2023-12-13T05:15:40.114Z,10.61
2023-12-13T05:18:06.583Z,10.69
2023-12-13T05:20:33.986Z,10.77
2023-12-13T05:23:00.464Z,10.89
2023-12-13T05:25:27.370Z,10.93
2023-12-13T05:27:53.805Z,10.58
2023-12-13T05:30:20.293Z,10.45
2023-12-13T05:32:46.744Z,10.34
2023-12-13T05:35:13.178Z,10.49
2023-12-13T05:37:39.644Z,10.36
2023-12-13T05:40:06.837Z,10.62
2023-12-13T05:42:34.498Z,10.60
2023-12-13T05:45:00.953Z,10.52
2023-12-13T05:47:27.452Z,10.60
2023-12-13T05:49:53.975Z,10.37
2023-12-13T05:52:20.408Z,10.18
2023-12-13T05:54:46.786Z,10.18
2023-12-13T05:57:13.506Z,10.18
2023-12-13T05:59:39.917Z,10.10
2023-12-13T06:02:06.443Z,10.08
2023-12-13T06:04:33.208Z,10.20
2023-12-13T06:07:05.634Z,10.15
2023-12-13T06:09:31.991Z,10.05
2023-12-13T06:11:59.198Z,10.36
2023-12-13T06:14:25.556Z,10.16
2023-12-13T06:16:52.075Z,10.22
2023-12-13T06:19:18.611Z,10.10
2023-12-13T06:21:45.019Z,10.21
2023-12-13T06:24:11.429Z,9.86
2023-12-13T06:26:37.802Z,10.00
2023-12-13T06:29:04.156Z,9.75
2023-12-13T06:31:31.370Z,9.99
2023-12-13T06:33:57.835Z,10.05
2023-12-13T06:36:24.254Z,9.86
2023-12-13T06:38:50.851Z,9.73
2023-12-13T06:41:17.281Z,9.90
2023-12-13T06:43:43.713Z,9.95
2023-12-13T06:46:10.107Z,9.85
2023-12-13T06:48:36.603Z,10.08
2023-12-13T06:51:03.075Z,9.93
2023-12-13T06:53:29.434Z,9.94
2023-12-13T06:55:56.394Z,9.82
2023-12-13T06:58:23.635Z,9.89
2023-12-13T07:03:16.917Z,9.61
2023-12-13T07:05:43.496Z,9.65
2023-12-13T07:08:10.028Z,9.86
2023-12-13T07:10:36.569Z,9.94
2023-12-13T07:13:03.210Z,9.76
2023-12-13T07:15:29.570Z,10.07
2023-12-13T07:17:56.021Z,10.09
2023-12-13T07:20:23.004Z,10.23
2023-12-13T07:22:51.285Z,10.32
2023-12-13T07:25:17.906Z,10.27
2023-12-13T07:27:44.303Z,10.19
2023-12-13T07:30:11.064Z,10.11
2023-12-13T07:32:37.807Z,10.17
2023-12-13T07:35:04.874Z,10.21
2023-12-13T07:37:31.400Z,9.99
2023-12-13T07:39:57.801Z,10.09
2023-12-13T07:42:24.166Z,10.20
2023-12-13T07:44:50.542Z,10.15
2023-12-13T07:47:16.934Z,10.18
2023-12-13T07:49:43.604Z,10.06
2023-12-13T07:52:10.120Z,10.00
2023-12-13T07:54:37.075Z,10.08
2023-12-13T07:57:04.458Z,10.15
2023-12-13T07:59:30.897Z,10.02
2023-12-13T08:01:57.339Z,9.94
2023-12-13T08:04:23.822Z,9.97
2023-12-13T08:06:50.225Z,9.98
2023-12-13T08:09:19.842Z,9.61
2023-12-13T08:11:47.973Z,10.01
2023-12-13T08:14:17.788Z,10.15
2023-12-13T08:16:44.330Z,10.24
2023-12-13T08:19:10.760Z,10.25
2023-12-13T08:21:41.941Z,10.29
2023-12-13T08:24:10.261Z,10.32
2023-12-13T08:26:36.651Z,10.32
2023-12-13T08:29:07.115Z,10.42
2023-12-13T08:31:34.677Z,10.51
2023-12-13T08:34:01.793Z,10.55
2023-12-13T08:36:28.551Z,10.56
2023-12-13T08:38:55.704Z,10.55
2023-12-13T08:41:22.150Z,10.44
2023-12-13T08:43:48.648Z,10.05
2023-12-13T08:46:15.183Z,10.05
2023-12-13T08:48:41.891Z,10.00
2023-12-13T08:51:08.570Z,10.01
2023-12-13T08:53:35.568Z,10.11
2023-12-13T08:56:04.544Z,9.94
2023-12-13T08:58:31.903Z,10.17
2023-12-13T09:00:58.351Z,10.01
2023-12-13T09:03:26.324Z,9.96
2023-12-13T09:05:53.063Z,10.27
2023-12-13T09:08:19.492Z,10.30
2023-12-13T09:10:45.927Z,10.30
2023-12-13T09:13:12.446Z,10.25
2023-12-13T09:15:38.883Z,9.90
2023-12-13T09:18:05.319Z,10.00
2023-12-13T09:20:31.883Z,10.07
2023-12-13T09:22:58.352Z,10.30
2023-12-13T09:25:26.605Z,10.13
2023-12-13T09:27:54.156Z,10.24
2023-12-13T09:30:20.773Z,10.48
2023-12-13T09:32:48.275Z,10.28
2023-12-13T09:35:15.553Z,10.23
2023-12-13T09:37:42.744Z,10.13
2023-12-13T09:40:17.887Z,10.31
2023-12-13T09:42:46.732Z,10.26
2023-12-13T09:45:18.313Z,10.41
2023-12-13T09:47:45.872Z,10.55
2023-12-13T09:50:12.730Z,10.65
2023-12-13T09:52:39.885Z,10.77
2023-12-13T09:55:08.551Z,11.04
2023-12-13T09:57:35.149Z,11.14
2023-12-13T10:00:01.552Z,11.16
2023-12-13T10:02:27.913Z,11.41
2023-12-13T10:04:55.645Z,11.19
2023-12-13T10:07:23.116Z,11.51
2023-12-13T10:09:49.854Z,11.71
2023-12-13T10:12:17.108Z,11.93
2023-12-13T10:14:44.329Z,11.91
2023-12-13T10:17:17.125Z,12.09
2023-12-13T10:19:46.686Z,12.04
2023-12-13T10:22:13.167Z,12.30
2023-12-13T10:24:40.517Z,12.46
2023-12-13T10:27:08.026Z,12.77
2023-12-13T10:29:34.374Z,13.06
2023-12-13T10:32:01.784Z,12.99
2023-12-13T10:34:29.187Z,13.50
2023-12-13T10:36:56.341Z,13.67
2023-12-13T10:39:25.374Z,14.27
2023-12-13T10:41:56.925Z,14.09
2023-12-13T10:44:24.855Z,14.51
2023-12-13T10:46:59.885Z,23.46
2023-12-13T10:49:27.293Z,28.05
2023-12-13T10:51:54.724Z,24.17
2023-12-13T10:54:21.816Z,19.38
2023-12-13T10:56:49.085Z,16.84
2023-12-13T10:59:16.760Z,16.55
2023-12-13T11:01:44.130Z,22.11
2023-12-13T11:04:17.884Z,21.35
2023-12-13T11:06:48.188Z,19.09
2023-12-13T11:09:18.612Z,17.11
2023-12-13T11:11:46.016Z,16.27
2023-12-13T11:14:16.270Z,15.92
2023-12-13T11:16:46.239Z,15.47
2023-12-13T11:19:16.011Z,15.99
2023-12-13T11:21:46.922Z,15.64
2023-12-13T11:24:21.764Z,15.99
2023-12-13T11:26:52.167Z,15.96
2023-12-13T11:29:23.994Z,15.12
2023-12-13T11:31:57.860Z,14.63
2023-12-13T11:34:33.427Z,14.38
2023-12-13T11:37:01.637Z,14.06
2023-12-13T11:39:31.892Z,13.76
2023-12-13T11:41:58.624Z,13.95
2023-12-13T11:44:35.851Z,14.13
2023-12-13T11:47:07.901Z,13.51
2023-12-13T11:49:34.349Z,14.27
2023-12-13T11:52:02.772Z,24.62
2023-12-13T11:54:29.147Z,19.77
2023-12-13T11:56:55.595Z,26.17
2023-12-13T11:59:22.630Z,26.27
2023-12-13T12:01:49.246Z,26.24
2023-12-13T12:04:20.412Z,27.68
2023-12-13T12:06:52.947Z,26.02
2023-12-13T12:09:22.631Z,24.84
2023-12-13T12:11:55.712Z,26.21
2023-12-13T12:14:31.761Z,28.79
2023-12-13T12:17:00.762Z,24.54
2023-12-13T12:19:28.536Z,27.96
2023-12-13T12:21:54.980Z,25.71
2023-12-13T12:24:29.305Z,24.54
2023-12-13T12:27:08.818Z,21.58
2023-12-13T12:29:35.348Z,18.26
2023-12-13T12:32:01.906Z,18.03
2023-12-13T12:34:28.455Z,17.67
2023-12-13T12:36:55.202Z,21.21
2023-12-13T12:39:22.057Z,22.25
2023-12-13T12:41:48.458Z,18.96
2023-12-13T12:44:14.847Z,18.63
2023-12-13T12:46:42.711Z,17.60
2023-12-13T12:49:09.605Z,17.16
2023-12-13T12:51:37.659Z,16.85
2023-12-13T12:54:04.129Z,16.54
2023-12-13T12:56:30.517Z,16.23
2023-12-13T12:58:56.919Z,16.37
2023-12-13T13:01:23.502Z,16.78
2023-12-13T13:03:51.949Z,16.79
2023-12-13T13:06:18.495Z,17.66
2023-12-13T13:08:44.941Z,18.54
2023-12-13T13:11:11.385Z,19.48
2023-12-13T13:13:37.894Z,19.26
2023-12-13T13:16:04.810Z,19.27
2023-12-13T13:18:33.439Z,19.53
2023-12-13T13:21:00.117Z,20.89
2023-12-13T13:23:27.021Z,21.30
2023-12-13T13:25:53.395Z,21.70
2023-12-13T13:28:19.826Z,21.23
2023-12-13T13:30:46.417Z,20.23
2023-12-13T13:33:12.960Z,19.93
2023-12-13T13:35:40.070Z,19.92
2023-12-13T13:38:06.519Z,19.50
2023-12-13T13:40:33.347Z,18.62
2023-12-13T13:43:00.889Z,18.11
2023-12-13T13:45:27.860Z,16.32
2023-12-13T13:47:55.982Z,17.66
2023-12-13T13:50:23.636Z,16.83
2023-12-13T13:52:50.200Z,16.70
2023-12-13T13:55:18.137Z,16.51
2023-12-13T13:57:45.400Z,16.18
2023-12-13T14:00:14.203Z,16.57
2023-12-13T14:02:40.635Z,18.14
2023-12-13T14:05:07.650Z,17.46
2023-12-13T14:07:34.455Z,16.83
2023-12-13T14:10:01.408Z,17.12
2023-12-13T14:12:29.213Z,17.04
2023-12-13T14:14:55.694Z,16.38
2023-12-13T14:17:22.045Z,16.12
2023-12-13T14:19:48.439Z,16.27
2023-12-13T14:22:14.928Z,16.34
2023-12-13T14:24:42.651Z,16.40
2023-12-13T14:27:09.386Z,16.47
2023-12-13T14:29:36.376Z,15.97
2023-12-13T14:32:02.933Z,15.80
2023-12-13T14:34:29.358Z,15.91
2023-12-13T14:36:55.724Z,15.95
2023-12-13T14:39:24.256Z,15.47
2023-12-13T14:41:50.766Z,15.54
2023-12-13T14:44:18.091Z,14.80
2023-12-13T14:46:44.498Z,14.30
2023-12-13T14:49:11.741Z,13.53
2023-12-13T14:51:38.875Z,13.31
2023-12-13T14:54:05.407Z,13.51
2023-12-13T14:56:32.525Z,13.22
2023-12-13T14:58:59.700Z,13.74
2023-12-13T15:01:28.478Z,14.10
2023-12-13T15:03:55.113Z,14.20
2023-12-13T15:06:22.691Z,14.33
2023-12-13T15:08:50.450Z,14.17
2023-12-13T15:11:17.835Z,14.17
2023-12-13T15:13:44.197Z,14.03
2023-12-13T15:16:10.765Z,13.92
2023-12-13T15:18:37.241Z,13.82
2023-12-13T15:21:03.919Z,13.57
2023-12-13T15:23:30.623Z,13.63
2023-12-13T15:25:57.369Z,13.42
2023-12-13T15:28:23.844Z,13.55
2023-12-13T15:30:50.233Z,13.32
2023-12-13T15:33:16.909Z,13.32
2023-12-13T15:35:45.550Z,13.29
2023-12-13T15:38:12.165Z,13.28
2023-12-13T15:40:38.745Z,13.24
2023-12-13T15:43:05.125Z,13.18
2023-12-13T15:45:31.482Z,13.21
2023-12-13T15:47:57.876Z,13.14
2023-12-13T15:50:24.348Z,13.07
2023-12-13T15:52:50.796Z,13.01
2023-12-13T15:55:17.582Z,12.96
2023-12-13T15:57:43.954Z,13.07
2023-12-13T16:00:10.967Z,13.03
2023-12-13T16:02:37.937Z,12.91
2023-12-13T16:05:05.852Z,12.96
2023-12-13T16:07:32.567Z,12.86
2023-12-13T16:09:59.201Z,12.83
2023-12-13T16:12:25.573Z,12.91
2023-12-13T16:14:51.994Z,12.79
2023-12-13T16:17:18.737Z,12.90
2023-12-13T16:19:45.106Z,12.96
2023-12-13T16:22:11.482Z,12.65
2023-12-13T16:24:37.851Z,12.51
2023-12-13T16:27:04.673Z,12.38
2023-12-13T16:29:31.467Z,12.12
2023-12-13T16:31:58.176Z,12.41
2023-12-13T16:34:24.871Z,12.41
2023-12-13T16:36:52.100Z,12.46
2023-12-13T16:39:20.002Z,12.52
2023-12-13T16:41:47.069Z,12.37
2023-12-13T16:44:13.448Z,12.57
2023-12-13T16:46:39.874Z,12.41
2023-12-13T16:49:06.600Z,12.57
2023-12-13T16:51:33.018Z,12.65
2023-12-13T16:53:59.851Z,12.62
2023-12-13T16:56:26.235Z,12.67
2023-12-13T16:58:52.620Z,12.56
2023-12-13T17:01:19.150Z,12.67
2023-12-13T17:03:49.980Z,12.72
2023-12-13T17:06:16.638Z,12.81
2023-12-13T17:08:43.187Z,12.78
2023-12-13T17:11:09.599Z,12.78
2023-12-13T17:13:36.039Z,12.65
2023-12-13T17:16:02.824Z,12.18
2023-12-13T17:18:31.727Z,12.38
2023-12-13T17:20:58.177Z,12.34
2023-12-13T17:23:24.665Z,12.48
2023-12-13T17:25:51.233Z,11.94
2023-12-13T17:28:17.814Z,11.90
2023-12-13T17:30:44.251Z,12.04
2023-12-13T17:33:10.697Z,11.89
2023-12-13T17:35:37.078Z,11.72
2023-12-13T17:38:03.502Z,11.70
2023-12-13T17:40:30.613Z,11.80
2023-12-13T17:42:57.081Z,12.00
2023-12-13T17:45:23.488Z,12.15
2023-12-13T17:47:49.945Z,12.31
2023-12-13T17:50:16.588Z,12.28
2023-12-13T17:52:43.564Z,12.28
2023-12-13T17:55:10.038Z,12.16
2023-12-13T17:57:36.471Z,11.78
2023-12-13T18:00:04.303Z,11.50
2023-12-13T18:02:30.723Z,11.22
2023-12-13T18:05:00.619Z,11.15
2023-12-13T18:07:27.166Z,11.37
2023-12-13T18:09:53.584Z,11.55
2023-12-13T18:12:19.922Z,11.85
2023-12-13T18:14:46.365Z,11.98
2023-12-13T18:17:13.213Z,11.71
2023-12-13T18:19:40.236Z,12.05
2023-12-13T18:22:06.626Z,12.14
2023-12-13T18:24:33.142Z,12.26
2023-12-13T18:26:59.621Z,11.93
2023-12-13T18:29:26.062Z,12.03
2023-12-13T18:31:53.161Z,12.13
2023-12-13T18:34:19.739Z,12.12
2023-12-13T18:36:46.182Z,12.12
2023-12-13T18:39:13.867Z,12.20
2023-12-13T18:41:40.308Z,12.15
2023-12-13T18:44:07.074Z,12.12
2023-12-13T18:46:33.575Z,11.98
2023-12-13T18:49:00.015Z,12.03
2023-12-13T18:51:26.393Z,11.96
2023-12-13T18:53:52.762Z,11.92
2023-12-13T18:56:19.121Z,11.89
2023-12-13T18:58:45.552Z,11.93
2023-12-13T19:01:11.978Z,11.95
2023-12-13T19:03:38.503Z,11.89
2023-12-13T19:06:05.392Z,11.96
2023-12-13T19:08:31.856Z,11.96
2023-12-13T19:10:58.312Z,12.01
2023-12-13T19:13:24.760Z,12.02
2023-12-13T19:15:51.153Z,12.02
2023-12-13T19:18:18.130Z,11.73
2023-12-13T19:20:46.034Z,11.84
2023-12-13T19:23:13.256Z,11.85
2023-12-13T19:25:39.845Z,11.84
2023-12-13T19:28:06.363Z,11.71
2023-12-13T19:30:32.757Z,11.70
2023-12-13T19:32:59.166Z,11.60
2023-12-13T19:35:25.623Z,11.69
2023-12-13T19:37:52.126Z,11.64
2023-12-13T19:40:18.484Z,11.70
2023-12-13T19:42:45.284Z,11.56
2023-12-13T19:45:11.984Z,11.58
2023-12-13T19:47:38.851Z,11.50
2023-12-13T19:50:06.067Z,11.56
2023-12-13T19:52:32.481Z,11.39
2023-12-13T19:54:58.963Z,11.41
2023-12-13T19:57:25.499Z,11.47
2023-12-13T19:59:52.058Z,11.36
2023-12-13T20:02:18.457Z,11.36
2023-12-13T20:04:45.507Z,11.36
2023-12-13T20:07:11.988Z,11.41
2023-12-13T20:09:38.335Z,11.43
2023-12-13T20:12:05.184Z,11.45
2023-12-13T20:14:31.565Z,11.42
2023-12-13T20:16:58.002Z,11.19
2023-12-13T20:19:24.526Z,11.22
2023-12-13T20:21:50.993Z,11.12
2023-12-13T20:24:17.376Z,10.86
2023-12-13T20:26:44.232Z,10.95
2023-12-13T20:29:10.600Z,10.66
2023-12-13T20:31:36.985Z,10.64
2023-12-13T20:34:03.454Z,10.80
2023-12-13T20:36:29.839Z,10.99
2023-12-13T20:38:56.199Z,11.05
2023-12-13T20:41:22.594Z,11.03
2023-12-13T20:43:49.029Z,10.93
2023-12-13T20:46:15.479Z,10.74
2023-12-13T20:48:41.905Z,10.72
2023-12-13T20:51:08.674Z,10.76
2023-12-13T20:53:35.167Z,10.82
2023-12-13T20:56:01.713Z,10.72
2023-12-13T20:58:28.605Z,10.85
2023-12-13T21:00:55.023Z,10.76
2023-12-13T21:03:21.517Z,10.86
2023-12-13T21:05:47.984Z,10.97
2023-12-13T21:08:14.634Z,10.96
2023-12-13T21:10:41.491Z,10.91
2023-12-13T21:13:08.147Z,10.93
2023-12-13T21:15:34.531Z,10.94
2023-12-13T21:18:01.017Z,11.04
2023-12-13T21:20:28.098Z,11.09
2023-12-13T21:22:54.691Z,11.01
2023-12-13T21:25:21.103Z,11.06
2023-12-13T21:27:47.494Z,11.00
2023-12-13T21:30:13.997Z,11.03
2023-12-13T21:32:40.846Z,10.91
2023-12-13T21:35:08.068Z,10.75
2023-12-13T21:37:34.517Z,10.73
2023-12-13T21:40:00.980Z,10.72
2023-12-13T21:42:27.478Z,10.79
2023-12-13T21:44:53.829Z,10.91
2023-12-13T21:47:20.871Z,10.80
2023-12-13T21:49:47.759Z,10.89
2023-12-13T21:52:14.232Z,10.81
2023-12-13T21:54:40.595Z,10.79
2023-12-13T21:57:06.947Z,10.51
2023-12-13T21:59:33.624Z,10.69
2023-12-13T22:02:04.343Z,10.67
2023-12-13T22:04:30.940Z,10.78
2023-12-13T22:06:57.352Z,10.70
2023-12-13T22:09:23.726Z,10.70
2023-12-13T22:11:50.216Z,10.70
2023-12-13T22:14:16.774Z,10.54
2023-12-13T22:16:45.322Z,10.37
2023-12-13T22:19:31.770Z,10.53
2023-12-13T22:21:58.153Z,10.67
2023-12-13T22:24:24.495Z,10.79
2023-12-13T22:26:50.865Z,10.66
2023-12-13T22:29:17.268Z,10.65
2023-12-13T22:31:43.645Z,10.74
2023-12-13T22:34:12.256Z,10.65
2023-12-13T22:36:40.273Z,10.55
2023-12-13T22:39:06.834Z,10.60
2023-12-13T22:41:33.196Z,10.71
2023-12-13T22:43:59.583Z,10.72
2023-12-13T22:46:26.098Z,10.55
2023-12-13T22:48:52.492Z,10.59
2023-12-13T22:51:18.864Z,10.38
2023-12-13T22:53:45.222Z,10.33
2023-12-13T22:56:11.724Z,10.27
2023-12-13T22:58:38.198Z,10.26
2023-12-13T23:01:04.715Z,10.27
2023-12-13T23:03:31.178Z,10.44
2023-12-13T23:05:57.665Z,10.39
2023-12-13T23:08:24.089Z,10.49
2023-12-13T23:10:51.704Z,10.55
2023-12-13T23:13:18.057Z,10.64
2023-12-13T23:15:44.415Z,10.66
2023-12-13T23:18:10.894Z,10.72
2023-12-13T23:20:37.326Z,10.85
2023-12-13T23:23:03.742Z,10.64
2023-12-13T23:25:30.203Z,10.59
2023-12-13T23:27:56.604Z,10.41
2023-12-13T23:30:22.990Z,10.41
2023-12-13T23:32:51.124Z,10.47
2023-12-13T23:35:17.755Z,10.48
2023-12-13T23:37:44.332Z,10.60
2023-12-13T23:40:11.586Z,10.72
2023-12-13T23:42:37.983Z,10.42
2023-12-13T23:45:04.941Z,10.50
2023-12-13T23:47:31.362Z,10.51
2023-12-13T23:49:57.888Z,10.50
2023-12-13T23:52:24.261Z,10.58
2023-12-13T23:54:50.690Z,10.40
2023-12-13T23:57:17.039Z,9.79
2023-12-13T23:59:43.416Z,9.83
